»·PEaware :: SWA1066 KBOI-KSFO

SWA1066 :: KBOI-KSFO

FLIGHT INFORMATION

Flight Status: Arrived
Operator:
Southwest Airlines
More flights by this operator :: More flights under this callsign
Pilot: Anonymous 19751 (19751)
Aircraft: BOEING 737-300
(B733)
More flights by this aircraft type
Origin: KBOI Boise Air Terminal/Gowen
United States
Destination: KSFO San Francisco Intl
United States
More flights between these airports :: More routes between these airports
Route: +BOI3 HYVAL REO LEGGS BDEGA2
File this flight plan on PilotEdge
Remarks: Shared cockpit flight IXEG737
Altitude:
(Current/Filed)
36,000ft
Speed:
(Current/Filed)
430kts
Departed: 17-Jul-18 02:09 PM
Arrived: 17-Jul-18 03:46 PM
Distance/Time
Traveled:
454nm/1:37
Distance/Time
To Go:
Arrived

Flight Plot

Page will automatically refresh every two minutes.

Flight plan parsing failed; only flown route is shown


Map Options




Map Legend


Flown Route
Filed Route
Departure Airport
Arrival Airport
Navaid (VOR, NDB)
Fix

Horizontal Profiles

Position Reports

Time Latitude Longitude Heading Altitude Ground
Speed
17-Jul-18 13:51 43.567293 -116.220837 24 2850ft 0kts
17-Jul-18 13:52 43.567293 -116.220837 24 2850ft 0kts
17-Jul-18 13:53 43.567293 -116.220837 24 2850ft 0kts
17-Jul-18 13:54 43.567293 -116.220837 24 2850ft 0kts
17-Jul-18 13:55 43.567293 -116.220837 24 2850ft 0kts
17-Jul-18 13:56 43.567293 -116.220837 24 2850ft 0kts
17-Jul-18 13:57 43.567293 -116.220837 24 2850ft 0kts
17-Jul-18 13:58 43.567293 -116.220837 24 2850ft 0kts
17-Jul-18 13:59 43.567293 -116.220837 24 2850ft 0kts
17-Jul-18 14:00 43.567018 -116.220907 353 2851ft 2kts
17-Jul-18 14:01 43.566555 -116.220443 291 2852ft 2kts
17-Jul-18 14:02 43.566446 -116.220105 294 2852ft 0kts
17-Jul-18 14:03 43.566446 -116.220105 294 2852ft 0kts
17-Jul-18 14:04 43.566446 -116.220105 294 2852ft 0kts
17-Jul-18 14:05 43.566461 -116.220151 294 2852ft 0kts
17-Jul-18 14:06 43.565575 -116.219636 115 2852ft 11kts
17-Jul-18 14:07 43.563173 -116.212577 114 2861ft 22kts
17-Jul-18 14:08 43.560444 -116.204615 114 2869ft 22kts
17-Jul-18 14:09 43.558657 -116.202489 238 2870ft 12kts
17-Jul-18 14:10 43.566951 -116.227525 296 3130ft 165kts
17-Jul-18 14:11 43.581496 -116.288737 288 6191ft 176kts
17-Jul-18 14:12 43.598541 -116.361633 296 8294ft 218kts
17-Jul-18 14:13 43.630807 -116.443662 302 10611ft 264kts
17-Jul-18 14:14 43.635059 -116.544141 235 13191ft 307kts
17-Jul-18 14:15 43.556216 -116.598384 203 15737ft 330kts
17-Jul-18 14:16 43.472047 -116.638890 203 15939ft 378kts
17-Jul-18 14:17 43.380803 -116.713636 218 18207ft 388kts
17-Jul-18 14:18 43.293075 -116.792752 217 21258ft 382kts
17-Jul-18 14:19 43.202586 -116.871969 217 23479ft 392kts
17-Jul-18 14:20 43.117128 -116.961527 236 25655ft 384kts
17-Jul-18 14:21 43.051566 -117.077176 235 27746ft 386kts
17-Jul-18 14:22 42.985353 -117.192355 236 29915ft 382kts
17-Jul-18 14:23 42.920532 -117.304663 236 31849ft 377kts
17-Jul-18 14:24 42.855811 -117.415930 236 33411ft 375kts
17-Jul-18 14:25 42.791868 -117.525759 237 34219ft 371kts
17-Jul-18 14:26 42.727721 -117.635602 237 34831ft 370kts
17-Jul-18 14:27 42.663873 -117.744781 236 35431ft 369kts
17-Jul-18 14:28 42.600180 -117.853150 236 35959ft 368kts
17-Jul-18 14:29 42.533684 -117.928890 223 36171ft 381kts
17-Jul-18 14:30 42.435631 -118.031635 224 36188ft 384kts
17-Jul-18 14:31 42.351691 -118.119771 224 36184ft 383kts
17-Jul-18 14:32 42.267554 -118.207818 224 36185ft 383kts
17-Jul-18 14:33 42.197294 -118.281110 224 36185ft 383kts
17-Jul-18 14:34 42.113061 -118.368698 224 36185ft 383kts
17-Jul-18 14:35 42.028816 -118.455999 224 36185ft 383kts
17-Jul-18 14:36 41.930364 -118.557641 224 36185ft 383kts
17-Jul-18 14:37 41.860062 -118.629740 224 36181ft 383kts
17-Jul-18 14:38 41.776879 -118.715169 223 36189ft 384kts
17-Jul-18 14:39 41.692434 -118.801522 223 36187ft 384kts
17-Jul-18 14:40 41.607824 -118.887708 223 36193ft 381kts
17-Jul-18 14:41 41.523712 -118.973109 223 36194ft 378kts
17-Jul-18 14:42 41.440505 -119.057308 222 36193ft 376kts
17-Jul-18 14:43 41.357172 -119.141362 222 36204ft 377kts
17-Jul-18 14:44 41.273701 -119.225269 222 36213ft 376kts
17-Jul-18 14:45 41.190397 -119.308736 222 36194ft 376kts
17-Jul-18 14:46 41.106892 -119.392132 222 36182ft 377kts
17-Jul-18 14:47 41.022481 -119.476166 221 36206ft 384kts
17-Jul-18 14:48 40.936318 -119.561631 220 36226ft 392kts
17-Jul-18 14:49 40.851652 -119.645064 220 36204ft 377kts
17-Jul-18 14:50 40.768390 -119.727343 219 36197ft 380kts
17-Jul-18 14:51 40.684130 -119.810135 219 36193ft 379kts
17-Jul-18 14:52 40.599436 -119.893071 219 36194ft 379kts
17-Jul-18 14:53 40.515203 -119.975285 219 36194ft 379kts
17-Jul-18 14:54 40.430414 -120.057776 219 36194ft 379kts
17-Jul-18 14:55 40.346052 -120.139582 219 36194ft 379kts
17-Jul-18 14:56 40.261405 -120.221399 219 36196ft 379kts
17-Jul-18 14:57 40.177100 -120.302628 219 36202ft 377kts
17-Jul-18 14:58 40.094605 -120.381862 219 36209ft 368kts
17-Jul-18 14:59 40.012261 -120.460720 219 36201ft 368kts
17-Jul-18 15:00 39.929995 -120.539256 219 36194ft 367kts
17-Jul-18 15:01 39.848522 -120.616540 219 36197ft 368kts
17-Jul-18 15:02 39.766871 -120.694158 219 36242ft 367kts
17-Jul-18 15:03 39.684442 -120.772224 219 36295ft 368kts
17-Jul-18 15:04 39.601767 -120.850201 219 36258ft 368kts
17-Jul-18 15:05 39.519410 -120.927644 219 36205ft 368kts
17-Jul-18 15:06 39.436911 -121.004984 219 36175ft 367kts
17-Jul-18 15:07 39.354641 -121.081883 219 36177ft 365kts
17-Jul-18 15:08 39.285429 -121.174493 231 36026ft 361kts
17-Jul-18 15:09 39.221446 -121.273000 231 35045ft 359kts
17-Jul-18 15:10 39.157091 -121.371597 231 34068ft 363kts
17-Jul-18 15:11 39.091982 -121.471023 231 33088ft 366kts
17-Jul-18 15:12 39.026076 -121.571352 231 32109ft 370kts
17-Jul-18 15:13 38.959109 -121.673033 230 31105ft 379kts
17-Jul-18 15:14 38.891566 -121.775341 229 30114ft 387kts
17-Jul-18 15:15 38.822054 -121.879775 229 29131ft 391kts
17-Jul-18 15:16 38.751608 -121.985610 229 28148ft 394kts
17-Jul-18 15:17 38.680391 -122.092265 229 27164ft 397kts
17-Jul-18 15:18 38.608456 -122.199630 229 26171ft 395kts
17-Jul-18 15:19 38.537776 -122.304770 229 25178ft 389kts
17-Jul-18 15:20 38.468139 -122.408021 229 24462ft 383kts
17-Jul-18 15:21 38.399569 -122.508736 229 23888ft 376kts
17-Jul-18 15:22 38.331886 -122.609084 229 22589ft 377kts
17-Jul-18 15:23 38.264898 -122.708416 229 21073ft 371kts
17-Jul-18 15:24 38.185712 -122.756969 170 19702ft 374kts
17-Jul-18 15:25 38.088561 -122.728086 168 18404ft 368kts
17-Jul-18 15:26 37.997178 -122.701477 168 17612ft 362kts
17-Jul-18 15:27 37.907308 -122.675184 163 16863ft 357kts
17-Jul-18 15:28 37.841716 -122.612523 141 15265ft 324kts
17-Jul-18 15:29 37.775348 -122.541928 141 12790ft 315kts
17-Jul-18 15:30 37.715845 -122.478829 141 11093ft 296kts
17-Jul-18 15:31 37.655381 -122.414572 141 11007ft 298kts
17-Jul-18 15:32 37.592048 -122.357021 155 10988ft 294kts
17-Jul-18 15:33 37.519625 -122.311706 155 11027ft 295kts
17-Jul-18 15:34 37.446435 -122.265223 154 9992ft 292kts
17-Jul-18 15:35 37.374885 -122.219829 154 8503ft 288kts
17-Jul-18 15:36 37.304875 -122.175456 154 6996ft 273kts
17-Jul-18 15:37 37.288572 -122.101298 40 6002ft 235kts
17-Jul-18 15:38 37.345926 -122.094416 352 6023ft 196kts
17-Jul-18 15:39 37.399810 -122.100168 353 6007ft 195kts
17-Jul-18 15:40 37.454239 -122.106532 347 5419ft 196kts
17-Jul-18 15:41 37.504487 -122.132204 326 4582ft 191kts
17-Jul-18 15:42 37.536881 -122.178818 297 3450ft 178kts
17-Jul-18 15:43 37.557699 -122.230454 298 2272ft 152kts
17-Jul-18 15:44 37.576063 -122.274186 298 1627ft 137kts
17-Jul-18 15:45 37.592772 -122.313671 297 838ft 130kts
17-Jul-18 15:46 37.609112 -122.352291 297 157ft 122kts
17-Jul-18 15:47 37.618954 -122.376270 276 23ft 27kts
17-Jul-18 15:48 37.617551 -122.379441 173 29ft 19kts
17-Jul-18 15:49 37.613743 -122.382915 296 30ft 7kts
17-Jul-18 15:50 37.613333 -122.383654 213 30ft 0kts
17-Jul-18 15:51 37.613333 -122.383654 213 30ft 0kts

Navigation Log

Ident Type
Flight plan parsing failed, navigation log unavailable